Terminal Aerodrome Forecast
Issued by NWS Sioux Falls, SD

Home | Current Version | Previous Version | Graphics & Text | Print | Product List | Glossary On
Versions: 1 2 3 4 5 6 7 8 9 10 11 12 13 14
000
FTUS43 KFSD 252002 AAA
TAFFSD
TAF AMD
KFSD 252002Z 2520/2618 04017G25KT 2SM -SN BKN020 OVC035
     FM252045 04017G25KT 5SM -SN BKN025
     FM252200 01016G24KT P6SM BKN020
     FM260100 35014G20KT P6SM SCT020 BKN080
     FM260600 34012KT P6SM SCT020=

USA.gov is the U.S. government's official web portal to all federal, state and local government web resources and services.